Time;durP1;ratioP1;P1;durP2;ratioP2;P2;SDS_P1;SDS_P2;PMS_P1;PMS_P2;Temp;Humidity;BMP_temperature;BMP_pressure;BME280_temperature;BME280_humidity;BME280_pressure;Samples;Min_cycle;Max_cycle;Signal;HPM_P1;HPM_P2
2022/07/16 00:01:58;;;;;;;5.13;3.72;;;15.60;99.90;;;;;;5012394;28;20533;-67
2022/07/16 00:04:24;;;;;;;9.38;3.55;;;15.60;99.90;;;;;;4995996;28;20117;-67
2022/07/16 00:06:49;;;;;;;6.05;4.05;;;15.60;99.90;;;;;;4998188;28;20141;-67
2022/07/16 00:09:15;;;;;;;4.10;3.60;;;15.60;99.90;;;;;;4995843;28;20487;-65
2022/07/16 00:11:41;;;;;;;6.53;3.40;;;15.60;99.90;;;;;;4977852;28;20057;-66
2022/07/16 00:14:07;;;;;;;6.72;3.28;;;15.60;99.90;;;;;;5001433;28;20056;-68
2022/07/16 00:16:33;;;;;;;9.63;3.45;;;15.60;99.90;;;;;;4998993;28;20045;-68
2022/07/16 00:21:45;;;;;;;5.47;3.33;;;15.60;99.90;;;;;;4969054;28;20456;-68
2022/07/16 00:24:11;;;;;;;8.27;3.53;;;15.70;99.90;;;;;;5000090;28;20069;-67
2022/07/16 00:26:37;;;;;;;7.75;3.78;;;15.70;99.90;;;;;;5011226;28;20077;-67
2022/07/16 00:29:03;;;;;;;6.95;3.95;;;15.70;99.90;;;;;;4978339;28;20104;-68
2022/07/16 00:31:29;;;;;;;5.65;4.25;;;15.70;99.90;;;;;;4994392;28;20073;-68
2022/07/16 00:33:55;;;;;;;10.68;4.20;;;15.70;99.90;;;;;;5000594;28;20073;-68
2022/07/16 00:36:21;;;;;;;6.15;3.83;;;15.70;99.90;;;;;;4984124;28;20045;-67
2022/07/16 00:38:47;;;;;;;7.18;4.10;;;15.70;99.90;;;;;;4981394;28;20409;-67
2022/07/16 00:41:19;;;;;;;5.15;3.38;;;15.60;99.90;;;;;;5000023;28;20077;-68
2022/07/16 00:43:47;;;;;;;8.27;3.20;;;15.60;99.90;;;;;;4997145;28;20049;-67
2022/07/16 00:46:14;;;;;;;4.88;2.80;;;15.60;99.90;;;;;;5000371;28;20045;-68
2022/07/16 00:48:41;;;;;;;4.30;2.20;;;15.60;99.90;;;;;;4998758;28;20447;-67
2022/07/16 00:51:06;;;;;;;2.78;1.90;;;15.60;99.90;;;;;;4996169;28;20078;-67
2022/07/16 00:53:34;;;;;;;2.35;1.70;;;15.60;99.90;;;;;;4998229;28;20556;-68
2022/07/16 00:56:01;;;;;;;3.90;1.70;;;15.50;99.90;;;;;;4981134;28;20034;-67
2022/07/16 00:58:27;;;;;;;4.57;1.80;;;15.50;99.90;;;;;;4998008;28;20388;-67
2022/07/16 01:00:53;;;;;;;4.22;1.30;;;15.50;99.90;;;;;;4993294;28;20052;-66
2022/07/16 01:03:19;;;;;;;6.70;1.40;;;15.50;99.90;;;;;;4957827;28;20049;-67
2022/07/16 01:05:45;;;;;;;5.40;1.60;;;15.50;99.90;;;;;;4976314;28;20669;-67
2022/07/16 01:08:12;;;;;;;6.05;1.55;;;15.50;99.90;;;;;;4972538;28;20048;-67
2022/07/16 01:10:40;;;;;;;3.75;1.30;;;15.50;99.90;;;;;;4978389;28;20076;-68
2022/07/16 01:13:07;;;;;;;4.85;1.58;;;15.50;99.90;;;;;;5015700;28;20049;-67
2022/07/16 01:15:33;;;;;;;4.05;1.35;;;15.50;99.90;;;;;;4996904;28;20047;-68
2022/07/16 01:17:59;;;;;;;5.93;1.65;;;15.40;99.90;;;;;;4994485;28;20480;-67
2022/07/16 01:20:25;;;;;;;5.93;1.85;;;15.50;99.90;;;;;;4977917;28;20489;-67
2022/07/16 01:22:55;;;;;;;6.88;1.80;;;15.40;99.90;;;;;;4984580;28;20551;-67
2022/07/16 01:25:21;;;;;;;7.30;1.60;;;15.40;99.90;;;;;;4974781;28;20058;-67
2022/07/16 01:27:47;;;;;;;6.65;2.20;;;15.50;99.90;;;;;;4996660;28;20401;-67
2022/07/16 01:30:13;;;;;;;10.50;2.10;;;15.50;99.90;;;;;;4990297;28;20046;-68
2022/07/16 01:32:39;;;;;;;6.57;1.92;;;15.50;99.90;;;;;;4980993;28;20042;-67
2022/07/16 01:35:05;;;;;;;5.97;1.83;;;15.50;99.90;;;;;;4979589;28;20064;-67
2022/07/16 01:37:31;;;;;;;9.52;1.90;;;15.50;99.90;;;;;;4972381;28;20054;-67
2022/07/16 01:39:57;;;;;;;6.65;1.90;;;15.50;99.90;;;;;;4998950;28;20073;-68
2022/07/16 01:42:23;;;;;;;5.80;1.90;;;15.50;99.90;;;;;;5013117;28;20515;-67
2022/07/16 01:44:50;;;;;;;7.18;1.98;;;15.50;99.90;;;;;;4995650;28;20497;-68
2022/07/16 01:47:15;;;;;;;5.93;2.08;;;15.50;99.90;;;;;;4994283;28;20751;-67
2022/07/16 01:49:41;;;;;;;5.47;2.20;;;15.50;99.90;;;;;;4994524;28;20061;-67
2022/07/16 01:52:13;;;;;;;4.65;2.10;;;15.50;99.90;;;;;;4998306;28;20052;-67
2022/07/16 01:54:48;;;;;;;5.90;2.22;;;15.50;99.90;;;;;;4996480;28;20161;-68
2022/07/16 01:57:15;;;;;;;6.68;1.75;;;15.50;99.90;;;;;;4999621;28;20041;-67
2022/07/16 01:59:42;;;;;;;10.57;2.10;;;15.40;99.90;;;;;;4997832;28;20054;-66
2022/07/16 02:02:08;;;;;;;6.15;2.20;;;15.40;99.90;;;;;;4973575;28;20049;-67
2022/07/16 02:04:34;;;;;;;5.70;1.80;;;15.40;99.90;;;;;;4993900;28;20088;-65
2022/07/16 02:07:00;;;;;;;5.60;2.20;;;15.40;99.90;;;;;;4978977;28;20050;-64
2022/07/16 02:09:26;;;;;;;7.60;2.08;;;15.40;99.90;;;;;;4996409;28;20468;-63
2022/07/16 02:11:52;;;;;;;6.95;1.92;;;15.40;99.90;;;;;;4996866;28;20052;-64
2022/07/16 02:14:18;;;;;;;6.95;1.90;;;15.30;99.90;;;;;;4997530;28;20045;-64
2022/07/16 02:16:44;;;;;;;5.38;1.80;;;15.30;99.90;;;;;;4996678;28;20240;-64
2022/07/16 02:19:09;;;;;;;4.88;1.60;;;15.30;99.90;;;;;;5011838;28;20049;-64
2022/07/16 02:21:35;;;;;;;4.07;1.77;;;15.20;99.90;;;;;;4998310;28;20053;-64
2022/07/16 02:24:02;;;;;;;5.97;1.73;;;15.10;99.90;;;;;;4989455;28;20104;-63
2022/07/16 02:26:28;;;;;;;4.60;1.67;;;15.00;99.90;;;;;;4996172;28;20045;-63
2022/07/16 02:28:54;;;;;;;8.05;2.13;;;15.00;99.90;;;;;;4991208;28;20056;-65
2022/07/16 02:31:20;;;;;;;4.18;1.85;;;14.90;99.90;;;;;;4990430;28;20050;-63
2022/07/16 02:33:47;;;;;;;5.25;1.70;;;14.90;99.90;;;;;;4993577;28;20050;-64
2022/07/16 02:36:12;;;;;;;5.45;1.63;;;14.80;99.90;;;;;;4996059;28;20050;-64
2022/07/16 02:38:39;;;;;;;4.90;2.10;;;14.80;99.90;;;;;;4996755;28;20099;-63
2022/07/16 02:41:04;;;;;;;8.70;1.85;;;14.70;99.90;;;;;;4993488;28;20065;-64
2022/07/16 02:43:30;;;;;;;5.30;1.90;;;14.70;99.90;;;;;;4995824;28;20050;-65
2022/07/16 02:45:56;;;;;;;7.95;2.13;;;14.60;99.90;;;;;;4978184;28;20047;-63
2022/07/16 02:48:22;;;;;;;6.10;2.30;;;14.60;99.90;;;;;;5002163;28;20056;-65
2022/07/16 02:50:48;;;;;;;4.88;2.15;;;14.60;99.90;;;;;;4979338;28;20060;-63
2022/07/16 02:53:14;;;;;;;7.32;2.20;;;14.50;99.90;;;;;;4998301;28;20492;-63
2022/07/16 02:55:40;;;;;;;5.88;2.08;;;14.50;99.90;;;;;;4998649;28;20042;-63
2022/07/16 02:58:06;;;;;;;5.53;2.00;;;14.40;99.90;;;;;;4962852;28;20100;-63
2022/07/16 03:00:32;;;;;;;6.18;2.40;;;14.40;99.90;;;;;;4991953;28;20077;-64
2022/07/16 03:02:58;;;;;;;4.32;2.22;;;14.40;99.90;;;;;;4979252;28;20050;-65
2022/07/16 03:05:24;;;;;;;6.53;2.08;;;14.30;99.90;;;;;;4979709;28;20652;-63
2022/07/16 03:07:51;;;;;;;6.65;2.20;;;14.30;99.90;;;;;;5000201;28;20077;-64
2022/07/16 03:10:17;;;;;;;5.97;2.25;;;14.30;99.90;;;;;;4998241;28;20057;-65
2022/07/16 03:12:43;;;;;;;4.22;2.00;;;14.30;99.90;;;;;;5001816;28;20133;-63
2022/07/16 03:15:11;;;;;;;7.35;2.05;;;14.30;99.90;;;;;;4984691;28;20081;-64
2022/07/16 03:17:38;;;;;;;7.60;2.28;;;14.20;99.90;;;;;;4989960;28;20038;-64
2022/07/16 03:20:05;;;;;;;6.68;2.15;;;14.20;99.90;;;;;;4982791;28;20393;-63
2022/07/16 03:22:31;;;;;;;5.68;2.78;;;14.20;99.90;;;;;;4999223;28;20046;-64
2022/07/16 03:24:57;;;;;;;5.57;2.03;;;14.20;99.90;;;;;;4995814;28;20430;-63
2022/07/16 03:27:23;;;;;;;7.85;2.33;;;14.20;99.90;;;;;;5000012;28;20085;-62
2022/07/16 03:29:49;;;;;;;6.78;2.38;;;14.20;99.90;;;;;;4998362;28;20116;-64
2022/07/16 03:32:15;;;;;;;4.10;2.10;;;14.20;99.90;;;;;;5011564;28;20104;-63
2022/07/16 03:34:41;;;;;;;16.80;2.35;;;14.20;99.90;;;;;;4979564;28;20709;-64
2022/07/16 03:37:06;;;;;;;7.35;2.40;;;14.10;99.90;;;;;;5018063;28;20049;-63
2022/07/16 03:39:33;;;;;;;5.78;2.05;;;14.20;99.90;;;;;;4999758;28;20053;-63
2022/07/16 03:41:59;;;;;;;8.77;2.33;;;14.20;99.90;;;;;;4965175;28;20037;-62
2022/07/16 03:44:24;;;;;;;5.60;2.22;;;14.20;99.90;;;;;;4997458;28;20083;-64
2022/07/16 03:46:50;;;;;;;11.52;3.20;;;14.20;99.90;;;;;;5002902;28;20622;-62
2022/07/16 03:49:16;;;;;;;8.65;2.75;;;14.10;99.90;;;;;;4996154;28;20041;-64
2022/07/16 03:51:42;;;;;;;7.40;2.42;;;14.10;99.90;;;;;;4962067;28;20050;-64
2022/07/16 03:54:08;;;;;;;7.40;2.60;;;14.10;99.90;;;;;;4998597;28;20607;-63
2022/07/16 03:56:34;;;;;;;6.70;2.40;;;14.10;99.90;;;;;;4981354;28;20133;-65
2022/07/16 03:59:00;;;;;;;7.13;2.40;;;14.00;99.90;;;;;;4997416;28;20045;-64
2022/07/16 04:01:26;;;;;;;6.13;2.28;;;14.00;99.90;;;;;;4994008;28;20045;-63
2022/07/16 04:03:52;;;;;;;6.07;2.58;;;14.00;99.90;;;;;;4997608;28;20072;-65
2022/07/16 04:06:19;;;;;;;6.97;2.50;;;14.00;99.90;;;;;;4999020;28;20049;-63
2022/07/16 04:08:46;;;;;;;6.22;2.75;;;14.00;99.90;;;;;;4998480;28;20058;-64
2022/07/16 04:11:11;;;;;;;7.03;2.70;;;13.90;99.90;;;;;;5014441;28;20083;-65
2022/07/16 04:13:39;;;;;;;5.78;2.60;;;13.90;99.90;;;;;;5001400;28;20046;-65
2022/07/16 04:16:06;;;;;;;6.22;2.28;;;13.90;99.90;;;;;;4996098;28;20193;-65
2022/07/16 04:18:32;;;;;;;8.65;2.75;;;13.90;99.90;;;;;;5011979;28;20117;-64
2022/07/16 04:20:58;;;;;;;13.20;2.47;;;13.80;99.90;;;;;;5015256;28;20416;-62
2022/07/16 04:23:25;;;;;;;8.05;2.10;;;13.80;99.90;;;;;;5013009;28;20099;-63
2022/07/16 04:25:51;;;;;;;9.65;2.40;;;13.80;99.90;;;;;;4991872;28;20563;-64
2022/07/16 04:28:16;;;;;;;6.82;1.92;;;13.80;99.90;;;;;;4979291;28;20054;-62
2022/07/16 04:30:43;;;;;;;7.95;2.10;;;13.80;99.90;;;;;;5011345;28;20116;-64
2022/07/16 04:33:08;;;;;;;7.45;2.30;;;13.80;99.90;;;;;;4997073;28;20447;-63
2022/07/16 04:35:34;;;;;;;5.97;1.95;;;13.80;99.90;;;;;;4943110;28;20061;-65
2022/07/16 04:38:00;;;;;;;11.13;2.30;;;13.90;99.90;;;;;;5000007;28;20042;-63
2022/07/16 04:40:26;;;;;;;5.47;2.13;;;13.90;99.90;;;;;;4994220;28;20645;-63
2022/07/16 04:42:52;;;;;;;5.82;2.00;;;14.00;99.90;;;;;;4998739;28;20088;-63
2022/07/16 04:45:18;;;;;;;10.50;2.10;;;14.00;99.90;;;;;;4991938;28;20060;-64
2022/07/16 04:47:43;;;;;;;7.88;2.35;;;14.10;99.90;;;;;;4997935;28;20053;-65
2022/07/16 04:50:10;;;;;;;11.25;2.47;;;14.10;99.90;;;;;;4998666;28;20053;-63
2022/07/16 04:52:36;;;;;;;7.20;1.83;;;14.20;99.90;;;;;;4999053;28;20141;-64
2022/07/16 04:55:03;;;;;;;10.38;2.38;;;14.20;99.90;;;;;;4983131;28;20049;-63
2022/07/16 04:57:29;;;;;;;9.45;1.85;;;14.30;99.90;;;;;;4997392;28;20042;-63
2022/07/16 04:59:54;;;;;;;8.38;2.13;;;14.30;99.90;;;;;;4978400;28;20038;-62
2022/07/16 05:05:06;;;;;;;5.88;1.50;;;14.30;99.90;;;;;;4992060;28;20437;-65
2022/07/16 05:07:32;;;;;;;9.98;1.75;;;14.30;99.90;;;;;;4989014;28;20050;-64
2022/07/16 05:09:58;;;;;;;12.25;1.98;;;14.30;99.90;;;;;;5000549;28;20052;-65
2022/07/16 05:12:23;;;;;;;6.38;1.75;;;14.40;99.90;;;;;;4991594;28;20235;-64
2022/07/16 05:14:49;;;;;;;8.43;1.77;;;14.40;99.90;;;;;;4997796;28;20065;-64
2022/07/16 05:17:15;;;;;;;8.00;1.60;;;14.40;99.90;;;;;;5008593;28;20068;-63
2022/07/16 05:19:41;;;;;;;8.10;1.75;;;14.40;99.90;;;;;;5009493;28;20097;-63
2022/07/16 05:22:07;;;;;;;6.90;1.95;;;14.40;99.90;;;;;;4994455;28;20054;-65
2022/07/16 05:24:33;;;;;;;6.03;1.58;;;14.40;99.90;;;;;;4978598;28;20061;-64
2022/07/16 05:26:59;;;;;;;7.60;1.75;;;14.40;99.90;;;;;;4995535;28;20388;-64
2022/07/16 05:29:25;;;;;;;7.43;1.67;;;14.40;99.90;;;;;;4979472;28;20041;-64
2022/07/16 05:31:51;;;;;;;7.40;1.50;;;14.40;99.90;;;;;;4969111;28;20057;-63
2022/07/16 05:34:17;;;;;;;9.02;2.15;;;14.40;99.90;;;;;;4996821;28;20392;-64
2022/07/16 05:36:43;;;;;;;5.82;1.77;;;14.50;99.90;;;;;;4993018;28;20046;-63
2022/07/16 05:39:09;;;;;;;5.70;1.52;;;14.50;99.90;;;;;;4994123;28;20065;-63
2022/07/16 05:41:35;;;;;;;8.30;1.88;;;14.50;99.90;;;;;;4994361;28;20049;-64
2022/07/16 05:44:01;;;;;;;3.55;1.20;;;14.50;99.90;;;;;;4970154;28;20746;-65
2022/07/16 05:46:27;;;;;;;7.53;1.50;;;14.50;99.90;;;;;;5005768;28;20133;-65
2022/07/16 05:48:53;;;;;;;5.78;1.35;;;14.50;99.90;;;;;;4991834;28;20061;-63
2022/07/16 05:51:19;;;;;;;9.68;1.60;;;14.60;99.90;;;;;;4992011;28;20053;-65
2022/07/16 05:53:45;;;;;;;8.20;1.48;;;14.60;99.90;;;;;;4976450;28;20042;-63
2022/07/16 05:56:11;;;;;;;8.05;1.70;;;14.60;99.90;;;;;;5008964;28;20539;-65
2022/07/16 05:58:37;;;;;;;8.60;1.67;;;14.60;99.90;;;;;;4997090;28;20045;-64
2022/07/16 06:01:03;;;;;;;6.13;1.50;;;14.60;99.90;;;;;;5007628;28;20046;-63
2022/07/16 06:03:29;;;;;;;8.95;1.30;;;14.60;99.90;;;;;;4976099;28;20517;-63
2022/07/16 06:05:54;;;;;;;6.45;1.45;;;14.70;99.90;;;;;;4991292;28;20081;-64
2022/07/16 06:08:20;;;;;;;9.52;1.45;;;14.70;99.90;;;;;;4977524;28;20038;-64
2022/07/16 06:10:46;;;;;;;7.25;1.42;;;14.70;99.90;;;;;;4982258;28;20049;-63
2022/07/16 06:13:12;;;;;;;5.70;1.17;;;14.80;99.90;;;;;;4997076;28;20045;-62
2022/07/16 06:15:38;;;;;;;9.02;1.40;;;14.80;99.90;;;;;;4996824;28;20054;-62
2022/07/16 06:18:04;;;;;;;8.10;1.40;;;14.90;99.90;;;;;;4981880;28;20068;-63
2022/07/16 06:20:30;;;;;;;3.45;1.20;;;14.90;99.90;;;;;;4998629;28;20993;-63
2022/07/16 06:22:57;;;;;;;8.50;1.30;;;15.00;99.90;;;;;;4998128;28;20164;-62
2022/07/16 06:25:23;;;;;;;8.73;1.27;;;15.10;99.90;;;;;;4999274;28;20119;-62
2022/07/16 06:27:49;;;;;;;4.45;1.00;;;15.20;99.90;;;;;;4995564;28;20042;-64
2022/07/16 06:30:16;;;;;;;6.10;1.10;;;15.20;99.90;;;;;;4998578;28;20041;-63
2022/07/16 06:32:43;;;;;;;5.32;1.30;;;15.20;99.90;;;;;;4981780;28;20042;-63
2022/07/16 06:35:09;;;;;;;6.40;1.50;;;15.30;99.90;;;;;;4996398;28;20057;-63
2022/07/16 06:37:35;;;;;;;12.85;1.58;;;15.30;99.90;;;;;;4993341;28;20050;-63
2022/07/16 06:40:02;;;;;;;7.45;1.17;;;15.40;99.90;;;;;;4999997;28;20042;-64
2022/07/16 06:42:28;;;;;;;6.82;1.40;;;15.40;99.90;;;;;;5000237;28;20128;-63
2022/07/16 06:44:54;;;;;;;8.18;1.20;;;15.50;99.90;;;;;;4995808;28;20041;-63
2022/07/16 06:47:19;;;;;;;5.90;1.50;;;15.60;99.90;;;;;;4978163;28;20671;-63
2022/07/16 06:49:45;;;;;;;5.05;1.30;;;15.60;99.90;;;;;;4998338;28;20129;-64
2022/07/16 06:52:11;;;;;;;10.27;1.45;;;15.70;99.90;;;;;;4999192;28;20057;-62
2022/07/16 06:54:37;;;;;;;8.18;1.33;;;15.80;99.90;;;;;;4998549;28;20143;-63
2022/07/16 06:57:03;;;;;;;9.18;1.30;;;15.90;99.90;;;;;;4979890;28;20053;-63
2022/07/16 06:59:29;;;;;;;5.45;0.90;;;16.00;99.90;;;;;;4981465;28;20050;-64
2022/07/16 07:01:55;;;;;;;6.95;1.00;;;16.00;99.60;;;;;;4995567;28;20064;-64
2022/07/16 07:04:21;;;;;;;3.90;1.10;;;16.10;99.20;;;;;;4996864;28;20057;-63
2022/07/16 07:06:46;;;;;;;5.15;1.08;;;16.10;99.00;;;;;;5009028;28;20056;-63
2022/07/16 07:09:12;;;;;;;8.70;1.10;;;16.20;98.40;;;;;;4993223;28;20692;-63
2022/07/16 07:11:40;;;;;;;6.53;0.93;;;16.30;98.40;;;;;;4997712;28;20148;-63
2022/07/16 07:14:06;;;;;;;6.00;1.00;;;16.40;98.30;;;;;;4997555;28;20056;-63
2022/07/16 07:16:31;;;;;;;6.50;1.00;;;16.50;98.00;;;;;;4996788;28;20073;-63
2022/07/16 07:18:57;;;;;;;5.07;1.30;;;16.50;97.60;;;;;;4988185;28;20054;-64
2022/07/16 07:21:23;;;;;;;4.13;0.88;;;16.60;97.60;;;;;;4992168;28;20050;-64
2022/07/16 07:23:49;;;;;;;5.00;1.20;;;16.80;97.90;;;;;;4990534;28;20658;-63
2022/07/16 07:26:15;;;;;;;5.28;1.10;;;17.00;97.80;;;;;;4988750;28;20060;-63
2022/07/16 07:28:40;;;;;;;5.65;1.38;;;17.00;97.10;;;;;;5007620;28;20389;-63
2022/07/16 07:31:06;;;;;;;4.50;1.05;;;17.00;96.50;;;;;;4976717;28;20076;-63
2022/07/16 07:33:32;;;;;;;6.07;1.20;;;17.00;96.20;;;;;;4982415;28;20804;-62
2022/07/16 07:35:58;;;;;;;5.63;0.95;;;16.90;96.90;;;;;;5019248;28;20480;-63
2022/07/16 07:38:24;;;;;;;3.95;0.82;;;17.00;96.80;;;;;;4978922;28;20037;-63
2022/07/16 07:40:50;;;;;;;6.50;1.23;;;17.00;96.70;;;;;;5017837;28;20054;-63
2022/07/16 07:43:19;;;;;;;7.78;1.10;;;17.00;96.80;;;;;;4978756;28;20381;-63
2022/07/16 07:45:45;;;;;;;5.20;1.20;;;17.00;96.90;;;;;;4993953;28;20132;-62
2022/07/16 07:48:11;;;;;;;6.55;1.50;;;17.00;96.80;;;;;;4998649;28;20426;-62
2022/07/16 07:50:37;;;;;;;9.18;1.75;;;16.90;96.80;;;;;;4998990;28;20124;-64
2022/07/16 07:53:03;;;;;;;7.50;1.45;;;16.90;96.90;;;;;;4996186;28;20496;-64
2022/07/16 07:55:30;;;;;;;6.18;1.23;;;16.90;96.90;;;;;;4980810;28;20962;-64
2022/07/16 07:57:56;;;;;;;6.97;1.42;;;16.90;96.90;;;;;;4987493;28;20049;-62
2022/07/16 08:00:23;;;;;;;6.07;1.20;;;17.00;97.00;;;;;;4990152;28;20160;-63
2022/07/16 08:02:49;;;;;;;5.93;1.00;;;17.00;97.10;;;;;;4994405;28;20077;-64
2022/07/16 08:05:15;;;;;;;8.00;1.58;;;17.10;97.10;;;;;;4994754;28;20042;-62
2022/07/16 08:07:42;;;;;;;6.28;1.42;;;17.10;97.00;;;;;;5001903;28;20052;-62
2022/07/16 08:10:08;;;;;;;7.57;1.40;;;17.20;96.70;;;;;;5002078;28;20096;-63
2022/07/16 08:12:35;;;;;;;6.00;1.30;;;17.20;96.80;;;;;;5002747;28;20046;-63
2022/07/16 08:15:02;;;;;;;5.25;1.13;;;17.20;96.60;;;;;;4996526;28;20455;-64
2022/07/16 08:17:28;;;;;;;5.13;1.40;;;17.30;96.60;;;;;;4995521;28;20469;-63
2022/07/16 08:19:54;;;;;;;6.00;1.55;;;17.40;96.80;;;;;;4993045;28;20140;-62
2022/07/16 08:22:20;;;;;;;6.80;1.50;;;17.70;96.60;;;;;;4996258;28;20137;-63
2022/07/16 08:27:30;;;;;;;5.68;1.35;;;18.10;96.70;;;;;;4996100;28;20041;-63
2022/07/16 08:29:56;;;;;;;6.47;1.35;;;18.10;96.40;;;;;;4995356;28;20041;-63
2022/07/16 08:32:22;;;;;;;7.40;1.40;;;18.00;96.20;;;;;;4992558;28;20491;-63
2022/07/16 08:34:48;;;;;;;5.13;1.50;;;17.80;96.20;;;;;;4968013;28;20038;-63
2022/07/16 08:37:13;;;;;;;10.52;1.33;;;17.60;95.90;;;;;;4992896;28;20153;-64
2022/07/16 08:39:42;;;;;;;8.93;1.48;;;17.50;96.00;;;;;;4976777;28;20121;-63
2022/07/16 08:42:12;;;;;;;3.35;1.02;;;17.60;95.40;;;;;;4994032;28;20096;-65
2022/07/16 08:44:44;;;;;;;6.93;1.25;;;17.60;95.10;;;;;;4994258;28;20100;-63
2022/07/16 08:47:10;;;;;;;5.53;1.10;;;17.60;95.30;;;;;;4992477;28;20050;-63
2022/07/16 08:49:38;;;;;;;8.57;1.50;;;17.60;94.60;;;;;;4993933;28;20050;-63
2022/07/16 08:52:06;;;;;;;5.05;1.33;;;17.70;94.00;;;;;;4963982;28;20045;-63
2022/07/16 08:54:33;;;;;;;5.93;1.20;;;17.90;93.30;;;;;;4995430;28;20581;-62
2022/07/16 08:57:00;;;;;;;6.90;1.40;;;18.00;92.80;;;;;;4982187;28;20050;-62
2022/07/16 08:59:27;;;;;;;9.52;1.30;;;18.30;92.90;;;;;;4987461;28;20537;-62
2022/07/16 09:01:53;;;;;;;4.43;1.00;;;18.50;93.00;;;;;;4996424;28;20049;-65
2022/07/16 09:04:19;;;;;;;4.65;1.13;;;18.70;91.60;;;;;;5012821;28;20500;-60
2022/07/16 09:06:46;;;;;;;6.07;1.30;;;18.80;91.30;;;;;;5001914;28;20068;-60
2022/07/16 09:09:12;;;;;;;3.88;1.15;;;18.90;91.00;;;;;;4997227;28;20089;-59
2022/07/16 09:11:39;;;;;;;7.38;1.30;;;19.10;90.30;;;;;;4990107;28;20084;-60
2022/07/16 09:14:08;;;;;;;5.28;1.40;;;19.10;87.50;;;;;;4987430;28;20046;-59
2022/07/16 09:16:38;;;;;;;6.45;1.10;;;19.20;86.70;;;;;;4967422;28;20045;-61
2022/07/16 09:19:06;;;;;;;8.88;1.17;;;19.30;86.30;;;;;;4988538;28;20413;-60
2022/07/16 09:21:34;;;;;;;6.22;1.70;;;19.30;86.30;;;;;;4995374;28;20448;-60
2022/07/16 09:24:01;;;;;;;5.40;1.20;;;19.20;85.50;;;;;;5000049;28;20057;-61
2022/07/16 09:26:28;;;;;;;7.43;1.35;;;18.90;84.10;;;;;;5001307;28;20100;-60
2022/07/16 09:28:55;;;;;;;8.32;1.55;;;18.80;85.90;;;;;;4996152;28;20050;-60
2022/07/16 09:31:41;;;;;;;6.97;1.23;;;18.80;87.80;;;;;;5001623;28;20058;-60
2022/07/16 09:34:08;;;;;;;8.57;1.30;;;18.90;86.70;;;;;;4981477;28;20045;-60
2022/07/16 09:36:37;;;;;;;8.48;1.40;;;18.90;87.40;;;;;;4997991;28;20048;-60
2022/07/16 09:39:07;;;;;;;6.53;1.20;;;19.10;86.50;;;;;;4997174;28;20520;-61
2022/07/16 09:41:47;;;;;;;5.18;1.23;;;19.20;84.50;;;;;;4998864;28;20161;-61
2022/07/16 09:44:22;;;;;;;5.82;1.25;;;19.40;83.10;;;;;;4997540;28;20181;-60
2022/07/16 09:47:08;;;;;;;5.53;0.88;;;19.50;78.70;;;;;;5001674;28;20926;-59
2022/07/16 09:49:36;;;;;;;3.65;1.40;;;19.60;79.60;;;;;;4997279;28;20172;-60
2022/07/16 09:52:33;;;;;;;6.00;1.13;;;19.80;78.60;;;;;;5008555;28;20077;-61
2022/07/16 09:54:59;;;;;;;7.70;1.27;;;20.00;78.00;;;;;;5007624;28;20095;-61
2022/07/16 09:57:28;;;;;;;5.80;0.98;;;20.00;76.60;;;;;;4996992;28;20157;-60
2022/07/16 09:59:56;;;;;;;3.17;1.10;;;19.80;76.40;;;;;;4998020;28;20400;-61
2022/07/16 10:02:23;;;;;;;4.80;1.10;;;19.70;75.70;;;;;;4999984;28;20053;-61
2022/07/16 10:04:49;;;;;;;5.40;1.23;;;19.80;75.90;;;;;;4990057;28;20759;-60
2022/07/16 10:07:17;;;;;;;5.68;1.10;;;20.00;76.10;;;;;;4986661;28;20578;-61
2022/07/16 10:09:43;;;;;;;6.32;1.48;;;20.00;76.00;;;;;;5001603;28;20579;-60
2022/07/16 10:12:13;;;;;;;3.47;0.93;;;20.00;75.90;;;;;;4972545;28;20523;-61
2022/07/16 10:14:47;;;;;;;6.45;1.15;;;20.20;76.40;;;;;;4994430;28;20053;-61
2022/07/16 10:17:21;;;;;;;4.90;1.30;;;20.50;76.00;;;;;;4991689;28;20129;-59
2022/07/16 10:20:05;;;;;;;7.15;1.10;;;20.70;76.20;;;;;;4994841;28;20046;-59
2022/07/16 10:22:34;;;;;;;3.65;1.30;;;21.00;75.30;;;;;;5011713;28;20100;-60
2022/07/16 10:25:00;;;;;;;7.38;1.10;;;20.90;73.10;;;;;;4997365;28;20093;-59
2022/07/16 10:27:35;;;;;;;3.75;0.93;;;20.90;72.40;;;;;;4993643;28;20103;-60
2022/07/16 10:30:18;;;;;;;3.92;1.17;;;21.10;73.60;;;;;;5000174;28;20519;-61
2022/07/16 10:32:59;;;;;;;;;;;21.40;73.20;;;;;;4996251;28;20521;-60
2022/07/16 10:35:39;;;;;;;6.18;1.13;;;21.60;72.80;;;;;;4997576;28;20340;-60
2022/07/16 10:38:21;;;;;;;4.97;1.27;;;21.70;70.70;;;;;;4988243;28;20799;-61
2022/07/16 10:41:04;;;;;;;5.00;1.00;;;21.60;70.40;;;;;;4994713;28;20042;-61
2022/07/16 10:43:30;;;;;;;;;;;21.60;70.00;;;;;;4957573;28;20065;-61
2022/07/16 10:45:59;;;;;;;7.20;1.35;;;21.80;71.10;;;;;;4996829;28;19917;-61
2022/07/16 10:48:28;;;;;;;7.60;1.73;;;21.80;70.80;;;;;;4998257;28;20456;-61
2022/07/16 10:51:22;;;;;;;5.13;1.40;;;21.80;70.90;;;;;;5002504;28;20133;-61
2022/07/16 10:54:02;;;;;;;8.85;1.33;;;22.10;72.50;;;;;;4996871;28;20492;-62
2022/07/16 10:56:45;;;;;;;6.65;1.50;;;22.30;71.30;;;;;;4999846;28;20049;-61
2022/07/16 10:59:15;;;;;;;;;;;22.00;71.50;;;;;;5000007;28;20049;-61
2022/07/16 11:01:44;;;;;;;6.15;1.30;;;21.80;72.40;;;;;;4993539;28;20394;-61
2022/07/16 11:04:11;;;;;;;10.40;1.65;;;21.80;72.90;;;;;;4989320;28;20046;-60
2022/07/16 11:06:39;;;;;;;6.55;1.20;;;21.90;72.30;;;;;;4991117;28;20061;-61
2022/07/16 11:09:06;;;;;;;5.68;1.30;;;21.70;70.30;;;;;;4990795;28;20365;-61
2022/07/16 11:11:34;;;;;;;6.97;1.40;;;21.50;71.10;;;;;;4990326;28;20054;-61
2022/07/16 11:14:04;;;;;;;6.22;1.92;;;21.60;71.10;;;;;;4990723;28;20497;-60
2022/07/16 11:16:30;;;;;;;7.43;1.00;;;21.70;70.80;;;;;;4989703;28;20959;-61
2022/07/16 11:19:00;;;;;;;3.97;1.20;;;21.60;70.70;;;;;;4993469;28;20061;-62
2022/07/16 11:21:27;;;;;;;4.97;1.30;;;21.70;70.50;;;;;;4993187;28;20368;-62
2022/07/16 11:24:01;;;;;;;3.60;1.20;;;21.70;68.70;;;;;;4992555;28;20050;-61
2022/07/16 11:26:28;;;;;;;7.70;1.27;;;21.50;67.80;;;;;;4991643;28;20050;-62
2022/07/16 11:29:00;;;;;;;5.53;1.23;;;21.50;68.20;;;;;;4989844;28;20124;-63
2022/07/16 11:31:31;;;;;;;5.60;1.05;;;21.70;67.80;;;;;;4987224;28;20050;-62
2022/07/16 11:34:00;;;;;;;8.43;1.35;;;21.70;67.30;;;;;;4992670;28;20369;-62
2022/07/16 11:36:28;;;;;;;3.90;1.10;;;21.60;67.10;;;;;;4988481;28;20163;-63
2022/07/16 11:39:02;;;;;;;5.22;1.30;;;21.50;67.30;;;;;;4989696;28;20041;-65
2022/07/16 11:41:29;;;;;;;5.32;1.00;;;21.50;66.90;;;;;;4990477;28;20064;-63
2022/07/16 11:43:55;;;;;;;5.28;1.10;;;21.60;67.60;;;;;;4996210;28;20056;-62
2022/07/16 11:46:24;;;;;;;5.75;1.58;;;21.70;67.40;;;;;;4999008;28;20069;-63
2022/07/16 11:48:51;;;;;;;4.70;1.40;;;21.80;67.60;;;;;;4976935;28;20050;-64
2022/07/16 11:51:17;;;;;;;5.38;1.27;;;22.10;66.70;;;;;;4996935;28;20050;-63
2022/07/16 11:53:50;;;;;;;4.03;0.93;;;22.30;66.10;;;;;;4991146;28;20435;-63
2022/07/16 11:56:37;;;;;;;4.78;1.00;;;22.30;65.20;;;;;;4992351;28;20646;-63
2022/07/16 11:59:27;;;;;;;5.00;1.10;;;22.30;64.10;;;;;;4988952;28;20050;-64
2022/07/16 12:02:13;;;;;;;5.70;1.25;;;22.50;65.30;;;;;;4988378;28;20049;-63
2022/07/16 12:04:52;;;;;;;5.43;1.40;;;22.70;65.00;;;;;;4965510;28;20104;-62
2022/07/16 12:07:28;;;;;;;4.75;1.25;;;23.10;64.20;;;;;;4984030;28;20061;-63
2022/07/16 12:10:01;;;;;;;3.88;1.25;;;23.30;63.00;;;;;;4984760;28;20049;-63
2022/07/16 12:12:30;;;;;;;10.23;1.73;;;23.30;62.20;;;;;;4981309;28;20576;-64
2022/07/16 12:15:01;;;;;;;4.40;1.13;;;23.10;62.80;;;;;;4985512;28;20064;-62
2022/07/16 12:17:36;;;;;;;5.18;1.08;;;22.80;63.80;;;;;;4977380;28;20777;-64
2022/07/16 12:20:27;;;;;;;5.45;1.20;;;22.40;63.80;;;;;;4994164;28;20045;-64
2022/07/16 12:23:10;;;;;;;8.00;1.25;;;22.40;63.80;;;;;;4987049;28;20058;-63
2022/07/16 12:25:38;;;;;;;8.00;1.27;;;22.50;64.00;;;;;;4985544;28;20407;-63
2022/07/16 12:28:11;;;;;;;5.25;1.30;;;22.50;63.90;;;;;;4968796;28;20119;-63
2022/07/16 12:30:49;;;;;;;3.53;1.20;;;22.40;63.90;;;;;;4989480;28;20137;-64
2022/07/16 12:33:15;;;;;;;3.53;1.10;;;22.30;64.20;;;;;;4984407;28;20050;-63
2022/07/16 12:35:47;;;;;;;4.32;1.10;;;22.40;64.70;;;;;;4979851;28;20104;-62
2022/07/16 12:38:48;;;;;;;7.80;1.48;;;22.30;64.10;;;;;;4988290;28;20049;-63
2022/07/16 12:41:24;;;;;;;6.35;1.50;;;22.20;64.60;;;;;;4971402;28;20061;-62
2022/07/16 12:43:58;;;;;;;7.32;1.17;;;22.20;64.80;;;;;;4970010;28;20054;-63
2022/07/16 12:46:33;;;;;;;10.48;1.38;;;22.20;64.90;;;;;;4985741;28;20064;-63
2022/07/16 12:49:05;;;;;;;9.52;1.60;;;22.20;64.90;;;;;;4987488;28;20088;-64
2022/07/16 12:51:36;;;;;;;4.50;1.30;;;22.40;64.50;;;;;;4969777;28;20053;-63
2022/07/16 12:54:04;;;;;;;6.03;1.30;;;22.80;63.70;;;;;;4986882;28;20046;-63
2022/07/16 12:59:16;;;;;;;4.38;0.90;;;23.20;61.40;;;;;;4983570;28;20633;-64
2022/07/16 13:01:42;;;;;;;6.28;1.20;;;23.50;59.90;;;;;;4983528;28;20054;-62
2022/07/16 13:04:09;;;;;;;14.13;2.08;;;23.70;59.60;;;;;;4971687;28;20053;-62